sensor_id;sensor_type;location;lat;lon;timestamp;P1;durP1;ratioP1;P2;durP2;ratioP2
56401;SDS011;42299;35.160;26.100;2023-08-30T00:01:05;16.35;;;12.10;;
56401;SDS011;42299;35.160;26.100;2023-08-30T00:11:29;15.45;;;13.85;;
56401;SDS011;42299;35.160;26.100;2023-08-30T00:21:54;17.08;;;13.57;;
56401;SDS011;42299;35.160;26.100;2023-08-30T00:32:17;17.23;;;13.88;;
56401;SDS011;42299;35.160;26.100;2023-08-30T00:42:43;17.50;;;14.18;;
56401;SDS011;42299;35.160;26.100;2023-08-30T00:53:05;19.15;;;15.25;;
56401;SDS011;42299;35.160;26.100;2023-08-30T01:03:31;18.30;;;15.30;;
56401;SDS011;42299;35.160;26.100;2023-08-30T01:13:55;17.85;;;15.15;;
56401;SDS011;42299;35.160;26.100;2023-08-30T01:24:23;20.88;;;15.75;;
56401;SDS011;42299;35.160;26.100;2023-08-30T01:34:53;19.33;;;15.35;;
56401;SDS011;42299;35.160;26.100;2023-08-30T01:45:15;17.83;;;15.35;;
56401;SDS011;42299;35.160;26.100;2023-08-30T01:55:41;19.15;;;15.98;;
56401;SDS011;42299;35.160;26.100;2023-08-30T02:06:06;18.23;;;16.35;;
56401;SDS011;42299;35.160;26.100;2023-08-30T02:16:32;19.90;;;16.70;;
56401;SDS011;42299;35.160;26.100;2023-08-30T02:26:55;21.02;;;16.92;;
56401;SDS011;42299;35.160;26.100;2023-08-30T02:37:20;23.15;;;17.55;;
56401;SDS011;42299;35.160;26.100;2023-08-30T02:47:44;21.20;;;17.10;;
56401;SDS011;42299;35.160;26.100;2023-08-30T02:58:09;20.40;;;17.20;;
56401;SDS011;42299;35.160;26.100;2023-08-30T03:08:32;20.55;;;17.10;;
56401;SDS011;42299;35.160;26.100;2023-08-30T03:18:57;20.13;;;17.45;;
56401;SDS011;42299;35.160;26.100;2023-08-30T03:29:19;21.75;;;17.60;;
56401;SDS011;42299;35.160;26.100;2023-08-30T03:39:45;23.02;;;20.08;;
56401;SDS011;42299;35.160;26.100;2023-08-30T03:50:07;20.73;;;16.95;;
56401;SDS011;42299;35.160;26.100;2023-08-30T04:00:33;22.58;;;17.17;;
56401;SDS011;42299;35.160;26.100;2023-08-30T04:10:58;21.40;;;17.47;;
56401;SDS011;42299;35.160;26.100;2023-08-30T04:21:23;22.13;;;17.30;;
56401;SDS011;42299;35.160;26.100;2023-08-30T04:31:45;18.75;;;15.57;;
56401;SDS011;42299;35.160;26.100;2023-08-30T04:42:10;20.15;;;14.35;;
56401;SDS011;42299;35.160;26.100;2023-08-30T04:52:33;19.33;;;14.10;;
56401;SDS011;42299;35.160;26.100;2023-08-30T05:02:57;16.95;;;14.35;;
56401;SDS011;42299;35.160;26.100;2023-08-30T05:13:21;19.75;;;14.68;;
56401;SDS011;42299;35.160;26.100;2023-08-30T05:23:45;19.55;;;14.60;;
56401;SDS011;42299;35.160;26.100;2023-08-30T05:34:08;17.17;;;13.52;;
56401;SDS011;42299;35.160;26.100;2023-08-30T05:44:51;17.00;;;11.60;;
56401;SDS011;42299;35.160;26.100;2023-08-30T05:55:13;18.13;;;11.50;;
56401;SDS011;42299;35.160;26.100;2023-08-30T06:05:39;19.63;;;7.55;;
56401;SDS011;42299;35.160;26.100;2023-08-30T06:16:01;16.27;;;7.20;;
56401;SDS011;42299;35.160;26.100;2023-08-30T06:26:25;16.10;;;6.97;;
56401;SDS011;42299;35.160;26.100;2023-08-30T06:36:48;12.18;;;6.47;;
56401;SDS011;42299;35.160;26.100;2023-08-30T06:47:12;14.27;;;5.93;;
56401;SDS011;42299;35.160;26.100;2023-08-30T06:57:34;13.98;;;6.20;;
56401;SDS011;42299;35.160;26.100;2023-08-30T07:07:58;17.85;;;5.55;;
56401;SDS011;42299;35.160;26.100;2023-08-30T07:18:21;15.03;;;5.80;;
56401;SDS011;42299;35.160;26.100;2023-08-30T07:28:46;12.88;;;4.88;;
56401;SDS011;42299;35.160;26.100;2023-08-30T07:39:08;9.27;;;2.80;;
56401;SDS011;42299;35.160;26.100;2023-08-30T07:49:32;11.55;;;2.90;;
56401;SDS011;42299;35.160;26.100;2023-08-30T08:10:19;13.13;;;2.80;;
56401;SDS011;42299;35.160;26.100;2023-08-30T08:20:42;10.85;;;2.75;;
56401;SDS011;42299;35.160;26.100;2023-08-30T08:31:07;13.90;;;3.42;;
56401;SDS011;42299;35.160;26.100;2023-08-30T08:41:32;11.18;;;3.15;;
56401;SDS011;42299;35.160;26.100;2023-08-30T08:52:00;11.40;;;3.53;;
56401;SDS011;42299;35.160;26.100;2023-08-30T09:02:23;11.30;;;3.50;;
56401;SDS011;42299;35.160;26.100;2023-08-30T09:12:48;10.82;;;3.08;;
56401;SDS011;42299;35.160;26.100;2023-08-30T09:23:17;10.30;;;2.60;;
56401;SDS011;42299;35.160;26.100;2023-08-30T09:33:42;12.65;;;3.03;;
56401;SDS011;42299;35.160;26.100;2023-08-30T09:44:09;10.38;;;2.63;;
56401;SDS011;42299;35.160;26.100;2023-08-30T09:54:33;9.40;;;2.70;;
56401;SDS011;42299;35.160;26.100;2023-08-30T10:04:58;9.43;;;1.98;;
56401;SDS011;42299;35.160;26.100;2023-08-30T10:15:23;8.90;;;2.50;;
56401;SDS011;42299;35.160;26.100;2023-08-30T10:25:48;8.85;;;2.40;;
56401;SDS011;42299;35.160;26.100;2023-08-30T10:36:21;7.60;;;1.83;;
56401;SDS011;42299;35.160;26.100;2023-08-30T10:46:44;5.38;;;1.70;;
56401;SDS011;42299;35.160;26.100;2023-08-30T10:57:18;7.47;;;1.77;;
56401;SDS011;42299;35.160;26.100;2023-08-30T11:07:41;10.18;;;1.95;;
56401;SDS011;42299;35.160;26.100;2023-08-30T11:18:07;10.77;;;2.20;;
56401;SDS011;42299;35.160;26.100;2023-08-30T11:28:33;8.70;;;2.30;;
56401;SDS011;42299;35.160;26.100;2023-08-30T11:38:57;10.98;;;2.13;;
56401;SDS011;42299;35.160;26.100;2023-08-30T11:49:19;10.03;;;2.17;;
56401;SDS011;42299;35.160;26.100;2023-08-30T11:59:44;9.25;;;1.90;;
56401;SDS011;42299;35.160;26.100;2023-08-30T12:10:08;8.18;;;1.90;;
56401;SDS011;42299;35.160;26.100;2023-08-30T12:20:34;6.78;;;1.58;;
56401;SDS011;42299;35.160;26.100;2023-08-30T12:30:56;11.18;;;1.83;;
56401;SDS011;42299;35.160;26.100;2023-08-30T12:41:21;10.10;;;1.77;;
56401;SDS011;42299;35.160;26.100;2023-08-30T12:51:43;11.85;;;2.13;;
56401;SDS011;42299;35.160;26.100;2023-08-30T13:02:07;10.02;;;1.90;;
56401;SDS011;42299;35.160;26.100;2023-08-30T13:12:30;8.77;;;1.90;;
56401;SDS011;42299;35.160;26.100;2023-08-30T13:22:54;9.95;;;2.33;;
56401;SDS011;42299;35.160;26.100;2023-08-30T13:33:16;11.50;;;2.20;;
56401;SDS011;42299;35.160;26.100;2023-08-30T13:43:40;9.60;;;2.10;;
56401;SDS011;42299;35.160;26.100;2023-08-30T13:54:03;7.50;;;1.83;;
56401;SDS011;42299;35.160;26.100;2023-08-30T14:04:28;6.85;;;1.90;;
56401;SDS011;42299;35.160;26.100;2023-08-30T14:14:52;8.37;;;2.03;;
56401;SDS011;42299;35.160;26.100;2023-08-30T14:25:17;8.63;;;1.85;;
56401;SDS011;42299;35.160;26.100;2023-08-30T14:35:41;9.75;;;1.75;;
56401;SDS011;42299;35.160;26.100;2023-08-30T14:46:06;12.63;;;2.20;;
56401;SDS011;42299;35.160;26.100;2023-08-30T14:56:29;8.77;;;1.65;;
56401;SDS011;42299;35.160;26.100;2023-08-30T15:06:53;8.82;;;2.00;;
56401;SDS011;42299;35.160;26.100;2023-08-30T15:17:15;10.23;;;1.92;;
56401;SDS011;42299;35.160;26.100;2023-08-30T15:27:40;8.88;;;1.70;;
56401;SDS011;42299;35.160;26.100;2023-08-30T15:38:03;6.68;;;1.70;;
56401;SDS011;42299;35.160;26.100;2023-08-30T15:48:27;11.98;;;2.13;;
56401;SDS011;42299;35.160;26.100;2023-08-30T15:58:49;12.25;;;1.88;;
56401;SDS011;42299;35.160;26.100;2023-08-30T16:09:13;12.00;;;2.28;;
56401;SDS011;42299;35.160;26.100;2023-08-30T16:19:36;13.07;;;2.85;;
56401;SDS011;42299;35.160;26.100;2023-08-30T16:30:00;11.30;;;2.00;;
56401;SDS011;42299;35.160;26.100;2023-08-30T16:40:23;15.60;;;2.65;;
56401;SDS011;42299;35.160;26.100;2023-08-30T16:50:47;15.23;;;2.58;;
56401;SDS011;42299;35.160;26.100;2023-08-30T17:01:10;12.95;;;2.60;;
56401;SDS011;42299;35.160;26.100;2023-08-30T17:11:34;13.73;;;3.00;;
56401;SDS011;42299;35.160;26.100;2023-08-30T17:21:58;11.07;;;2.38;;
56401;SDS011;42299;35.160;26.100;2023-08-30T17:32:25;12.30;;;2.72;;
56401;SDS011;42299;35.160;26.100;2023-08-30T17:42:48;13.45;;;2.90;;
56401;SDS011;42299;35.160;26.100;2023-08-30T17:53:19;11.32;;;2.97;;
56401;SDS011;42299;35.160;26.100;2023-08-30T18:03:42;11.00;;;2.75;;
56401;SDS011;42299;35.160;26.100;2023-08-30T18:14:06;12.18;;;2.53;;
56401;SDS011;42299;35.160;26.100;2023-08-30T18:24:28;10.65;;;2.08;;
56401;SDS011;42299;35.160;26.100;2023-08-30T18:34:52;13.95;;;3.03;;
56401;SDS011;42299;35.160;26.100;2023-08-30T18:45:15;9.23;;;2.28;;
56401;SDS011;42299;35.160;26.100;2023-08-30T18:55:39;12.20;;;2.78;;
56401;SDS011;42299;35.160;26.100;2023-08-30T19:06:01;9.95;;;2.30;;
56401;SDS011;42299;35.160;26.100;2023-08-30T19:16:26;10.88;;;2.10;;
56401;SDS011;42299;35.160;26.100;2023-08-30T19:26:49;15.13;;;2.10;;
56401;SDS011;42299;35.160;26.100;2023-08-30T19:37:16;8.13;;;2.22;;
56401;SDS011;42299;35.160;26.100;2023-08-30T19:47:39;10.18;;;2.45;;
56401;SDS011;42299;35.160;26.100;2023-08-30T19:58:03;8.55;;;2.20;;
56401;SDS011;42299;35.160;26.100;2023-08-30T20:08:26;8.98;;;1.80;;
56401;SDS011;42299;35.160;26.100;2023-08-30T20:18:50;11.98;;;1.98;;
56401;SDS011;42299;35.160;26.100;2023-08-30T20:29:13;10.32;;;1.90;;
56401;SDS011;42299;35.160;26.100;2023-08-30T20:39:37;7.57;;;1.60;;
56401;SDS011;42299;35.160;26.100;2023-08-30T20:49:59;11.65;;;2.05;;
56401;SDS011;42299;35.160;26.100;2023-08-30T21:00:23;7.25;;;1.42;;
56401;SDS011;42299;35.160;26.100;2023-08-30T21:10:46;8.07;;;1.70;;
56401;SDS011;42299;35.160;26.100;2023-08-30T21:21:10;8.55;;;1.73;;
56401;SDS011;42299;35.160;26.100;2023-08-30T21:31:33;6.88;;;1.48;;
56401;SDS011;42299;35.160;26.100;2023-08-30T21:41:57;5.97;;;1.67;;
56401;SDS011;42299;35.160;26.100;2023-08-30T21:52:19;8.13;;;2.00;;
56401;SDS011;42299;35.160;26.100;2023-08-30T22:02:43;11.02;;;1.73;;
56401;SDS011;42299;35.160;26.100;2023-08-30T22:13:07;11.88;;;2.25;;
56401;SDS011;42299;35.160;26.100;2023-08-30T22:23:31;8.98;;;1.80;;
56401;SDS011;42299;35.160;26.100;2023-08-30T22:33:53;8.93;;;1.77;;
56401;SDS011;42299;35.160;26.100;2023-08-30T22:44:17;13.52;;;2.17;;
56401;SDS011;42299;35.160;26.100;2023-08-30T22:54:40;10.45;;;2.25;;
56401;SDS011;42299;35.160;26.100;2023-08-30T23:05:04;10.63;;;3.38;;
56401;SDS011;42299;35.160;26.100;2023-08-30T23:15:28;6.32;;;1.75;;
56401;SDS011;42299;35.160;26.100;2023-08-30T23:25:55;6.18;;;1.90;;
56401;SDS011;42299;35.160;26.100;2023-08-30T23:36:21;8.00;;;2.00;;
56401;SDS011;42299;35.160;26.100;2023-08-30T23:46:46;7.35;;;1.70;;
56401;SDS011;42299;35.160;26.100;2023-08-30T23:57:08;13.27;;;2.03;;
